Tiptonville, TN

12:04 AM CDT on October 31, 2014 (GMT -0500)
KTNUNION3 | Change Station
CLOSE
Current Station
Personal Weather Station
Location: Union City, TN
Elevation: 360 ft
Nearby Weather Stations
Active Advisory: Freeze Watch

Elev 360 ft 36.41 °N, 89.05 °W | Updated 3 minutes ago

Overcast
Overcast
53.7 °F
Feels Like 53.7 °F
N
2.0
Wind Variable Wind from NE
Gusts 3.0 mph

Today
High -- | Low -- °F
--% Chance of Precip.
Yesterday
High -- | Low -- °F
Precip. -- in
7:20 AM 6:02 PM
Waxing Crescent, 51% visible
Pressure 30.01 in
Visibility 10.0 miles
Clouds Scattered Clouds 7000 ft
Mostly Cloudy 7500 ft
Overcast 12000 ft
Dew Point 47 °F
Humidity 79%
Rainfall 0.00 in
Snow Depth Not available.
UV 0 out of 12
Pollen .90 out of 12
Air Quality Not available.
Flu Activity Not available.
METAR KDYR 310455Z 11004KT 10SM SCT070 BKN075 OVC120 13/04 A3001 RMK AO1

More Conditions Fewer Conditions

Pressure 30.01 in
Visibility 10.0 miles
Clouds Scattered Clouds 7000 ft
Mostly Cloudy 7500 ft
Overcast 12000 ft
Dew Point 47 °F
Humidity 79%
Rainfall 0.00 in
Snow Depth Not available.
UV 0 out of 12
Pollen .90 out of 12
Air Quality Not available.
Flu Activity Not available.
METAR KDYR 310455Z 11004KT 10SM SCT070 BKN075 OVC120 13/04 A3001 RMK AO1

More Conditions Fewer Conditions

10-Day Weather Forecast

Almanac

Astronomy

Oct. 31, 2014 Rise Set
Actual Time
Civil Twilight
Nautical Twilight
Astronomical Twilight
Moon
Length of Visible Light
Length of Day
Tomorrow will be .
, % of the Moon is Illuminated

Today's Extremes

State Highs State Lows

Community

WunderPhotos

Upload Photos

1,766,567 photos uploaded!

WunderBlogs® & News

Nearby

Air Quality

  Air Quality AQ Index Pollutant
Not available.

Snow Depth

Station Depth Elevation

Earthquake Activity

City Distance Mag. Time & Date
Minimum magnitude displayed is 2.5.

Coastal Water Temperatures

Place Temperature

Nearby Weather Stations